Sarny, Ukraine
Current Conditions -  °F | °C
As of 6:00 PM on Monday 22 Dec 2014 (Local Time) from UKLR Reporting Station
Light Rain Light Rain  
Wind Chill: 29°   Ceiling: 900
Heat Index: 39°   Visibility: 6mi
Dew Point: 37°   Wind: 22mph
Humidity: 93%   Direction: 250°WSW
Pressure: 29.65"   Gusts: NA
Location:  51.33°N, 26.6°E
Report Text: UKLR 221500Z 25010MPS 9999 -RA OVC009 04/03 Q1004 30190060 NOSIG
Loading
Personal Weather Stations






























Interactive Weather Map New forecast layout! Learn more

10-Day Weather Forecast

Advertisements
Track Severe Weather on mobile